Aerodrome Latest Weathers

# Airport/Station Observation Time (Local Time) Wind Visibility (km) Weather Temp. (°C) Dewdrop (°C) Air Pressure (hPa)
Direction (from) Speed (km/h)
1 Maimun Saleh - Sabang 2017-09-21 13:00:00 WIB Barat 14.8 8.0 Berawan 27 24 1011
2 Sultan Iskandar Muda - Banda Aceh 2017-09-21 15:30:00 WIB Barat Daya 18.5 >=10 Berawan 32 21 1007
3 Cut Nyak Dien Nagan Raya - Meulaboh, NAD 2017-09-21 15:00:00 WIB Barat 3.7 7.0 Berawan 29 27 1009
4 Malikussaleh - Lhokseumawe 2017-09-21 15:00:00 WIB Tenggara 3.7 7.0 Berawan 29 23 1007
5 Binaka - Gunung Sitoli 2017-09-21 15:00:00 WIB Timur Laut 9.3 8.0 Cerah - berawan 30 25 1009
6 Kualanamu International Airport - Deli Serdang 2017-09-21 15:30:00 WIB Timur Laut 11.1 >=10 Berawan 29 23 1007
7 Dr. Ferdinand Lumban Tobing - Pinangsori (Sibolga) 2017-09-21 15:30:00 WIB Barat 5.6 >=10 Berawan 29 24 1008
8 Aek Godang - Padang Sidempuan 2017-09-21 15:00:00 WIB Barat 16.7 >=10 Berawan 30 20 1008
9 Minangkabau International Airport - Padang 2017-09-21 15:30:00 WIB Barat 5.6 >=10 Cerah 30 22 1009
10 Sultan Syarif Kasim II - Pekanbaru 2017-09-21 15:30:00 WIB Barat Laut 11.1 >=10 Cerah - berawan 32 20 1006
11 Depati Parbo - Kerinci 2017-09-21 15:00:00 WIB Barat 13.0 >=10 Berawan 28 16 1012
12 Japura - Rengat 2017-09-21 15:00:00 WIB Tenang 8.0 Berawan 32 23 1007
13 Fatmawati Sukarno - Bengkulu 2017-09-21 15:30:00 WIB Selatan 14.8 >=10 Cerah - berawan 30 23 1007
14 Seibati - Tanjung Balai Karimun 2017-09-21 15:00:00 WIB Barat Daya 9.3 >=10 Berawan 31 21 1007
15 Sultan Thaha - Jambi 2017-09-21 15:30:00 WIB Timur 3.7 >=10 Berawan 33 23 1006
16 Hang Nadim - Batam 2017-09-21 15:30:00 WIB Selatan 9.3 >=10 Cerah - berawan 30 22 1009
17 Raja Haji Fisabilillah - Tanjung Pinang 2017-09-21 15:30:00 WIB Selatan 13.0 >=10 Cerah - berawan 30 23 1008
18 Dabo - Singkep 2017-09-21 15:00:00 WIB Selatan 11.1 >=10 Berawan 30 23 1007
19 Sultan Mahmud Badaruddin II - Palembang 2017-09-21 15:30:00 WIB Timur 13.0 >=10 Berawan 33 20 1006
20 Radin Inten II - Lampung 2017-09-21 15:30:00 WIB Tenggara 22.2 >=10 Cerah - berawan 33 20 1007
21 Depati Amir - Pangkal Pinang 2017-09-21 15:00:00 WIB Timur 16.7 >=10 Cerah - berawan 30 22 1008
22 Budiarto - Curug 2017-09-21 15:30:00 WIB Utara 18.5 >=10 Cerah - berawan 31 23 1008
23 Soekarno Hatta - Jakarta 2017-09-21 15:30:00 WIB Utara 16.7 >=10 Cerah - berawan 30 21 1008
24 H.A.S. Hanandjoeddin - Tanjung Pandan 2017-09-21 15:00:00 WIB Barat Laut 13.0 7.0 Berawan 28 24 1008
25 Supadio - Pontianak 2017-09-21 15:30:00 WIB Tenggara 13.0 >=10 Berawan 31 23 1007
26 Rahadi Osman - Ketapang 2017-09-21 15:00:00 WIB Selatan 14.8 >=10 Cerah - berawan 31 23 1008
27 Ahmad Yani - Semarang 2017-09-21 15:30:00 WIB Utara 18.5 7.0 Cerah - berawan 32 18 1006
28 Adi Soemarmo - Surakarta 2017-09-21 14:00:00 WIB Timur 7.4 >=10 Cerah - berawan 35 16 1008
29 Susilo - Sintang 2017-09-21 15:30:00 WIB Tenang 8.0 Berawan 31 27 1007
30 Iskandar - Pangkalan Bun 2017-09-21 15:30:00 WIB Barat Laut 9.3 8.0 Berawan 27 25 1008
31 Nanga Pinoh 2017-09-21 15:00:00 WIB Selatan 7.4 6.0 Berawan 30 23 1008
32 Juanda - Surabaya 2017-09-21 15:30:00 WIB Timur 22.2 >=10 Cerah - berawan 33 17 1007
33 Pangsuma - Putussibau 2017-09-21 13:00:00 WIB Tenang 7.0 Berawan 29 24 1009
34 Haji Asan - Sampit 2017-09-21 15:00:00 WIB Tenggara 9.3 >=10 Berawan 32 23 1007
35 Noto Hadinegoro - Jember 2017-09-21 14:00:00 WIB Barat Daya 22.2 8.0 Cerah - berawan 31 19 1010
36 Tjilik Riwut - Palangkaraya 2017-09-21 15:30:00 WIB Barat Daya 11.1 >=10 Berawan 32 22 1008
37 Blimbingsari - Banyuwangi 2017-09-21 14:00:00 WIB Tenggara 13.0 >=10 Cerah - berawan 30 21 1009
38 Beringin - Muara Teweh 2017-09-21 15:30:00 WIB Tenang 7.0 Berawan 34 24 1007
39 Sanggu - Buntok 2017-09-21 15:00:00 WIB Barat Daya 7.4 >=10 Berawan 33 24 1008
40 Syamsudin Noor - Banjarmasin 2017-09-21 16:30:00 WITA Barat Daya 11.1 >=10 Berawan 32 23 1006
41 Ngurah Rai - Denpasar 2017-09-21 16:30:00 WITA Tenggara 18.5 >=10 Cerah - berawan 29 21 1009
42 Yuvai Semaring - Long Bawang 2017-09-21 15:00:00 WITA Tenang 6.0 Berawan 25 20 1013
43 Bandara Internasional Lombok - Praya 2017-09-21 16:30:00 WITA Selatan 18.5 >=10 Cerah - berawan 30 21 1009
44 Gusti Sjamsir Alam - Kota Baru 2017-09-21 16:30:00 WITA Tenggara 7.4 Cerah 31 23 1006
45 Sepinggan - Balikpapan 2017-09-21 16:30:00 WITA Selatan 11.1 >=10 Cerah - berawan 30 25 1007
46 Temindung - Samarinda 2017-09-21 16:00:00 WITA Selatan 11.1 >=10 Berawan 32 24 1007
47 Tanjung Harapan - Tanjung Selor 2017-09-21 16:00:00 WITA Tenang 8.0 Berawan 32 25 1006
48 Sultan Muhammad Kaharuddin - Sumbawa Besar 2017-09-21 16:00:00 WITA Barat 7.4 >=10 Cerah - berawan 34 19 1007
49 Kalimarau - Tanjung Redeb 2017-09-21 16:30:00 WITA Barat 9.3 Cerah - berawan 33 23 1006
50 Juwata - Tarakan 2017-09-21 16:30:00 WITA Barat 5.6 >=10 Berawan 31 25 1006
51 Nunukan 2017-09-21 16:00:00 WITA Selatan 7.4 7.0 Berawan 31 25 1005
52 Sultan Muhammad Salahuddin - Bima 2017-09-21 16:00:00 WITA Selatan 24.1 >=10 Cerah - berawan 32 21 1007
53 Tambolaka - Sumba Barat 2017-09-21 15:00:00 WITA Utara 14.8 >=10 Cerah - berawan 31 22 1009
54 Sultan Hasanuddin - Makassar 2017-09-21 16:00:00 WITA Barat Daya 7.4 9.0 Berawan 31 22 1007
55 Pongtiku - Tana Toraja 2017-09-21 16:00:00 WITA Timur 5.6 8.0 Berawan 26 20 1007
56 Komodo - Labuan Bajo 2017-09-21 16:30:00 WITA Timur Laut 9.3 >=10 Cerah - berawan 30 24 1007
57 Umbu Mehang Kunda - Waingapu 2017-09-21 16:00:00 WITA Timur 22.2 >=10 Cerah - berawan 31 23 1008
58 Andi Jemma - Masamba 2017-09-21 16:00:00 WITA Selatan 7.4 8.0 Berawan 31 23 1009
59 Frans Sales Lega - Ruteng 2017-09-21 16:30:00 WITA Barat 5.6 7.0 Guntur dan hujan 22 19 1007
60 Kasiguncu - Poso 2017-09-21 16:00:00 WITA Timur Laut 7.4 9.0 Berawan 30 24 1006
61 Sultan Bantilan - Toli Toli 2017-09-21 16:00:00 WITA Barat 5.6 >=10 Hujan ringan 30 24 1006
62 Tardamu - Sabu 2017-09-21 16:00:00 WITA Tenggara 11.1 >=10 Berawan 31 23 1009
63 Fransiskus Xaverius Seda - Maumere 2017-09-21 16:00:00 WITA Selatan 22.2 >=10 Cerah - berawan 31 22 1009
64 Wolter Monginsidi - Kendari 2017-09-21 15:00:00 WITA Timur Laut 3.7 6.0 Hujan ringan 25 25 1010
65 Beto Ambari - Bau Bau 2017-09-21 14:00:00 WITA Barat 5.6 >=10 Berawan 28 25 1011
66 Syukuran Aminuddin Amir - Luwuk 2017-09-21 16:30:00 WITA Selatan 13.0 >=10 Hujan ringan 26 24 1008
67 Djalaluddin - Gorontalo 2017-09-21 16:30:00 WITA Tenggara 9.3 >=10 Guntur di sekitarnya 30 23 1006
68 Gewayantana - Larantuka 2017-09-21 16:00:00 WITA Timur Laut 5.6 >=10 Cerah - berawan 31 22 1008
69 David Constantijn Saudale / Lekunik - Rote 2017-09-21 16:00:00 WITA Tenggara 18.5 >=10 Berawan 29 23 1014
70 El Tari - Kupang 2017-09-21 16:30:00 WITA Tenggara 31.5 >=10 Cerah - berawan 31 21 1009
71 Mali Kalabahi - Alor 2017-09-21 16:30:00 WITA Timur 5.6 >=10 Berawan 31 23 1009
72 Sam Ratulangi - Manado 2017-09-21 16:30:00 WITA Timur Laut 11.1 >=10 Guntur 29 23 1008
73 Naha - Tahuna 2017-09-21 16:00:00 WITA Tenang 8.0 Berawan 29 25 1007
74 Emalamo - Sanana 2017-09-21 15:00:00 WIT Timur 7.4 9.0 Cerah - berawan 31 25 1007
75 Namlea 2017-09-21 17:00:00 WIT Timur 20.4 9.0 Berawan 28 24 1007
76 Sultan Babullah - Ternate 2017-09-21 17:30:00 WIT Tenggara 9.3 7.0 Hujan ringan 26 24 1009
77 Oesman Sadik - Labuha 2017-09-21 17:00:00 WIT Tenang 8.0 Berawan 27 24 1008
78 Gamar Malamo - Galela 2017-09-21 15:00:00 WIT Tenang 2.0 Guntur dan hujan ringan 25 25 1008
79 Pattimura - Ambon 2017-09-21 17:30:00 WIT Utara 3.7 9.0 Berawan 27 25 1008
80 Amahai 2017-09-21 17:00:00 WIT Timur Laut 3.7 8.0 Hujan 25 24 1009
81 Bandaneira - Banda 2017-09-21 16:00:00 WIT Timur 7.4 >=10 Berawan 29 24 1008
82 Seigun - Sorong Kota 2017-09-21 15:00:00 WIT Barat Daya 5.6 8.0 Berawan 28 24 1007
83 Mathilda Batlayeri - Saumlaki 2017-09-21 17:00:00 WIT Tenggara 18.5 >=10 Berawan 28 24 1009
84 Torea - Fak Fak 2017-09-21 16:00:00 WIT Tenang 8.0 Berawan 28 25 1009
85 Utarom - Kaimana 2017-09-21 16:00:00 WIT Utara 5.6 8.0 Berawan 30 24 1007
86 Rendani - Manokwari 2017-09-21 17:30:00 WIT Tenang 7.0 Cerah - berawan 31 24 1008
87 Nabire 2017-09-21 17:00:00 WIT Tenang 5.0 Hujan tiba-tiba di sekitarnya 29 25 1007
88 Frans Kaisiepo - Biak 2017-09-21 17:30:00 WIT Tenang >=10 Berawan 28 25 1008
89 Enarotali 2017-09-21 17:00:00 WIT Tenang 7.0 Hujan ringan 21 17 1007
90 Moses Kilangin - Timika 2017-09-21 17:30:00 WIT Timur Laut 7.4 7.0 Berawan 26 25 1010
91 Wamena 2017-09-21 17:00:00 WIT Tenggara 22.2 9.0 Hujan 20 18 1004
92 Mopah - Merauke 2017-09-21 17:30:00 WIT Timur 9.3 >=10 Cerah - berawan 30 22 1008
93 Sentani - Jayapura 2017-09-21 17:30:00 WIT Barat Daya 3.7 >=10 Cerah - berawan 26 24 1008

Satellite Images

Wave Height Forecast

Wind Forecast

Forest Fires